Terminal Aerodrome Forecast
Issued by NWS

Home | Current Version | Previous Version | Text Only | Print | Product List | Glossary On
Versions: 1 2 3 4 5 6 7 8 9 10 11 12 13 14 15 16
000
FTUS45 KVEF 032300
TAFVGT
TAF
KVGT 032339Z 0400/0424 25010KT P6SM VCSH SCT050 BKN070
     FM040300 32012KT P6SM BKN070
     FM041600 35015G25KT P6SM SKC
     FM042100 02008KT P6SM SKC=

USA.gov is the U.S. government's official web portal to all federal, state and local government web resources and services.